Decoded Metar for KDNL (AUGUSTA/DANIEL in GA, USA) (IATA:DNL) | Meteo·Mobile Aviation Weather
aviador You're here:

KDNL Decoded Metar

AUGUSTA/DANIEL in GA, USA
Report Time2019-05-22 17:53:00
UTC Time2019-05-22 18:47:52
Flight Rules vfr VFR
Wind140° at 07 kt
W.Decomp.*RWY 11: 5.8 kt HW 3.9 kt RCW
RWY 23: 0.5 kt HW 7 kt LCW
Visibility9999 m
Phenomena:N/A
Clouds:Broken 060 Hf
Overcast 100 Hf
Expected CloudBase > 6,000 ft AGL from Temp-Dew spread
Ceiling6,000 ft
Temp32°C (ISA +18)
Dew Point17°C (41% RH)
Heat Index32.5°C
AAT31.9°C
QNH1020 hPa
Density Alt2,487 ft
Elevation427 ft
Report Wrong Elevation
Raw Report
METAR KDNL 221753Z AUTO 14007KT 10SM BKN060 OVC100 32/17 A3011 RMK
AO2 SLP190 T03220172 10333 20233 50003=

Extra information for KDNL:More info

Metar Taf Metar & Taf Last 4 Metars F.Rules Stats Wind Profile Meteogram Temp Stats Airport Information Weather charts Add Link Nearby VenuesMetar ALERT Operation Metar Decoded Social comments

AIRNAV info for KDNL